Ocean City, Maryland
Current Conditions -  °F | °C
As of 1:53 AM on Friday 28 Nov 2014 (Local Time) from KOXB Reporting Station
Clear Clear  
Wind Chill: 30°   Ceiling: Unl
Heat Index: 30°   Visibility: 8mi
Dew Point: 27°   Wind: 0mph
Humidity: 88%   Direction: NA
Pressure: 30.14"   Gusts: NA
Location:  38.34°N, 75.08°W
Report Text: KOXB 280653Z AUTO 00000KT 8SM CLR M01/M03 A3014 RMK AO2 SLP206 T10111028 TSNO PNO $
Loading
Personal Weather Stations






























Interactive Weather Map New forecast layout! Learn more

10-Day Weather Forecast

Advertisements
Track Severe Weather on mobile